createdAt,value
2022-10-01T00:03:31.101Z,12.5
2022-10-01T00:13:33.427Z,12.5
2022-10-01T00:23:35.628Z,12.6
2022-10-01T00:43:40.478Z,12.5
2022-10-01T00:53:42.989Z,12.1
2022-10-01T01:03:45.427Z,11.4
2022-10-01T01:13:48.052Z,10.9
2022-10-01T01:23:50.247Z,10.6
2022-10-01T01:33:52.326Z,10.5
2022-10-01T01:43:54.242Z,10.4
2022-10-01T01:53:56.805Z,10.3
2022-10-01T02:14:00.912Z,10
2022-10-01T02:24:02.715Z,9.9
2022-10-01T02:44:07.587Z,9.9
2022-10-01T02:54:10.101Z,9.8
2022-10-01T03:04:11.837Z,9.9
2022-10-01T03:14:13.550Z,9.9
2022-10-01T03:24:15.301Z,9.8
2022-10-01T03:44:18.840Z,9.8
2022-10-01T03:54:21.235Z,9.8
2022-10-01T04:04:23.424Z,9.8
2022-10-01T04:14:25.366Z,9.9
2022-10-01T04:24:27.656Z,10
2022-10-01T04:34:30.062Z,9.9
2022-10-01T04:44:32.252Z,10
2022-10-01T04:54:34.594Z,10
2022-10-01T05:04:36.479Z,10.2
2022-10-01T05:14:38.698Z,10.2
2022-10-01T05:24:40.436Z,10.2
2022-10-01T05:34:42.356Z,10.2
2022-10-01T05:44:44.833Z,10.1
2022-10-01T05:54:47.156Z,10.1
2022-10-01T06:04:49.779Z,10.1
2022-10-01T06:14:52.022Z,10.2
2022-10-01T06:24:56.652Z,10.3
2022-10-01T06:34:56.516Z,10.3
2022-10-01T06:44:58.847Z,10.4
2022-10-01T06:55:01.205Z,10.4
2022-10-01T07:05:02.892Z,10.6
2022-10-01T07:15:05.020Z,10.6
2022-10-01T07:25:07.088Z,10.7
2022-10-01T07:35:09.393Z,10.8
2022-10-01T07:45:12.029Z,10.8
2022-10-01T07:55:13.924Z,11
2022-10-01T08:05:15.623Z,11.2
2022-10-01T08:15:18.197Z,11.5
2022-10-01T08:25:19.941Z,11.9
2022-10-01T08:35:21.710Z,12.2
2022-10-01T08:45:23.714Z,12.6
2022-10-01T08:55:25.798Z,12.8
2022-10-01T09:05:28.342Z,12.9
2022-10-01T09:15:30.769Z,13.5
2022-10-01T09:25:33.170Z,13.7
2022-10-01T09:45:37.692Z,14.1
2022-10-01T09:55:39.930Z,13.8
2022-10-01T10:05:48.925Z,13.9
2022-10-01T10:15:51.229Z,13.9
2022-10-01T10:25:53.471Z,13.6
2022-10-01T10:35:55.337Z,14.5
2022-10-01T10:45:57.187Z,14.5
2022-10-01T10:55:59.234Z,15.5
2022-10-01T11:06:00.945Z,16.1
2022-10-01T11:16:03.023Z,16.3
2022-10-01T11:26:04.999Z,15.6
2022-10-01T11:36:07.643Z,15.7
2022-10-01T11:46:09.369Z,14.7
2022-10-01T11:56:11.323Z,14.4
2022-10-01T12:06:13.708Z,11.3
2022-10-01T12:26:18.284Z,10.7
2022-10-01T12:36:20.549Z,11.5
2022-10-01T12:56:24.918Z,12.5
2022-10-01T13:36:33.296Z,14.4
2022-10-01T13:46:34.782Z,14.5
2022-10-01T13:56:36.626Z,15.2
2022-10-01T14:06:38.494Z,15.3
2022-10-01T14:36:44.929Z,14.8
2022-10-01T14:46:47.344Z,14.5
2022-10-01T14:56:49.132Z,14.5
2022-10-01T15:16:53.549Z,15
2022-10-01T15:26:56.154Z,15.1
2022-10-01T15:36:57.795Z,14.9
2022-10-01T15:46:59.610Z,14.9
2022-10-01T15:57:02.040Z,14.8
2022-10-01T16:07:03.722Z,14.6
2022-10-01T16:17:05.992Z,14.4
2022-10-01T16:37:10.338Z,14.2
2022-10-01T16:47:12.217Z,14
2022-10-01T16:57:14.107Z,13.8
2022-10-01T17:07:16.577Z,13.4
2022-10-01T17:17:19.152Z,13.4
2022-10-01T17:27:21.338Z,13.2
2022-10-01T17:37:23.577Z,13
2022-10-01T17:47:25.954Z,12.8
2022-10-01T17:57:27.753Z,12.5
2022-10-01T18:07:30.128Z,12.3
2022-10-01T18:17:32.424Z,12.5
2022-10-01T18:27:34.780Z,12.5
2022-10-01T18:37:39.959Z,12.6
2022-10-01T18:47:38.790Z,12.4
2022-10-01T18:57:41.307Z,12.2
2022-10-01T19:07:43.578Z,12.2
2022-10-01T19:17:46.215Z,12.5
2022-10-01T19:27:48.516Z,12.6
2022-10-01T19:37:50.773Z,12.3
2022-10-01T19:47:53.070Z,12.2
2022-10-01T19:57:55.465Z,11.9
2022-10-01T20:07:57.413Z,11.6
2022-10-01T20:17:59.051Z,11.5
2022-10-01T20:28:01.214Z,11.3
2022-10-01T20:38:03.608Z,11.1
2022-10-01T20:48:05.998Z,10.9
2022-10-01T20:58:07.659Z,10.8
2022-10-01T21:08:10.241Z,10.7
2022-10-01T21:18:12.549Z,10.7
2022-10-01T21:28:14.454Z,10.9
2022-10-01T21:38:16.699Z,11
2022-10-01T21:48:18.445Z,11.1
2022-10-01T21:58:20.366Z,10.8
2022-10-01T22:08:22.056Z,10.7
2022-10-01T22:18:23.982Z,10.3
2022-10-01T22:28:25.864Z,10.1
2022-10-01T22:38:28.373Z,10.1
2022-10-01T22:48:30.289Z,10.2
2022-10-01T22:58:32.589Z,10.4
2022-10-01T23:08:35.119Z,10.8
2022-10-01T23:18:36.787Z,10.9
2022-10-01T23:28:38.482Z,11.1
2022-10-01T23:38:40.459Z,11.1
2022-10-01T23:48:42.842Z,11.2
2022-10-01T23:58:44.487Z,11.3
